createdAt,value
2022-09-17T00:00:59.594Z,1.20
2022-09-17T00:03:30.837Z,1.20
2022-09-17T00:06:06.322Z,1.38
2022-09-17T00:08:42.007Z,1.15
2022-09-17T00:11:16.151Z,1.30
2022-09-17T00:13:47.491Z,1.27
2022-09-17T00:16:28.544Z,1.30
2022-09-17T00:18:59.711Z,1.20
2022-09-17T00:21:30.701Z,1.20
2022-09-17T00:24:06.292Z,1.20
2022-09-17T00:26:37.593Z,1.23
2022-09-17T00:29:09.115Z,1.13
2022-09-17T00:31:40.234Z,1.20
2022-09-17T00:34:12.258Z,1.30
2022-09-17T00:36:43.790Z,1.30
2022-09-17T00:39:16.889Z,1.17
2022-09-17T00:41:47.234Z,1.15
2022-09-17T00:44:51.257Z,1.58
2022-09-17T00:47:27.884Z,1.17
2022-09-17T00:50:03.826Z,1.17
2022-09-17T00:52:42.110Z,1.17
2022-09-17T00:55:24.159Z,1.30
2022-09-17T00:57:59.176Z,1.38
2022-09-17T01:00:30.243Z,1.20
2022-09-17T01:03:01.612Z,1.20
2022-09-17T01:05:42.979Z,1.27
2022-09-17T01:08:27.801Z,1.40
2022-09-17T01:11:42.076Z,1.20
2022-09-17T01:14:41.065Z,1.20
2022-09-17T01:17:27.920Z,1.15
2022-09-17T01:20:45.715Z,1.23
2022-09-17T01:23:46.563Z,1.20
2022-09-17T01:26:52.946Z,1.20
2022-09-17T01:29:47.844Z,1.35
2022-09-17T01:32:27.549Z,1.30
2022-09-17T01:35:06.969Z,1.35
2022-09-17T01:37:44.889Z,1.40
2022-09-17T01:40:27.095Z,1.10
2022-09-17T01:43:06.928Z,1.25
2022-09-17T01:45:44.966Z,1.38
2022-09-17T01:48:20.475Z,1.17
2022-09-17T01:50:57.739Z,1.45
2022-09-17T01:53:37.805Z,1.50
2022-09-17T01:56:11.492Z,1.40
2022-09-17T01:58:50.863Z,1.30
2022-09-17T02:01:26.865Z,1.40
2022-09-17T02:04:07.437Z,1.30
2022-09-17T02:06:42.402Z,1.23
2022-09-17T02:09:24.079Z,1.30
2022-09-17T02:12:00.150Z,1.40
2022-09-17T02:14:37.435Z,1.40
2022-09-17T02:17:17.367Z,1.25
2022-09-17T02:19:50.768Z,1.52
2022-09-17T02:22:31.469Z,1.60
2022-09-17T02:25:10.889Z,1.48
2022-09-17T02:27:55.006Z,1.38
2022-09-17T02:30:25.685Z,1.65
2022-09-17T02:32:57.271Z,1.50
2022-09-17T02:35:29.767Z,1.65
2022-09-17T02:38:00.267Z,1.63
2022-09-17T02:40:38.366Z,1.77
2022-09-17T02:43:25.738Z,1.90
2022-09-17T02:46:17.141Z,1.98
2022-09-17T02:49:27.416Z,1.92
2022-09-17T02:52:10.406Z,1.65
2022-09-17T02:54:55.021Z,1.88
2022-09-17T02:57:33.000Z,1.85
2022-09-17T03:00:14.640Z,1.83
2022-09-17T03:02:52.674Z,2.00
2022-09-17T03:05:26.874Z,1.75
2022-09-17T03:08:02.191Z,1.73
2022-09-17T03:10:34.630Z,1.95
2022-09-17T03:13:05.090Z,1.90
2022-09-17T03:15:35.656Z,2.15
2022-09-17T03:18:05.924Z,1.92
2022-09-17T03:20:36.330Z,1.90
2022-09-17T03:23:08.766Z,1.88
2022-09-17T03:25:39.760Z,2.03
2022-09-17T03:28:10.303Z,1.98
2022-09-17T03:30:40.918Z,2.00
2022-09-17T03:33:11.414Z,2.13
2022-09-17T03:35:45.971Z,1.85
2022-09-17T03:38:18.639Z,1.85
2022-09-17T03:41:00.146Z,1.60
2022-09-17T03:43:30.682Z,1.70
2022-09-17T03:46:01.159Z,1.90
2022-09-17T03:48:32.809Z,1.75
2022-09-17T03:51:03.297Z,1.70
2022-09-17T03:53:35.649Z,1.73
2022-09-17T03:56:08.961Z,1.80
2022-09-17T03:58:39.485Z,1.65
2022-09-17T04:01:10.333Z,1.80
2022-09-17T04:03:40.803Z,1.65
2022-09-17T04:06:11.404Z,1.60
2022-09-17T04:08:44.130Z,1.60
2022-09-17T04:11:14.608Z,1.60
2022-09-17T04:13:44.811Z,1.70
2022-09-17T04:16:15.800Z,1.60
2022-09-17T04:18:45.672Z,1.80
2022-09-17T04:21:16.110Z,1.70
2022-09-17T04:23:48.464Z,1.63
2022-09-17T04:26:18.957Z,1.80
2022-09-17T04:28:49.479Z,1.40
2022-09-17T04:31:19.635Z,1.40
2022-09-17T04:33:50.101Z,1.50
2022-09-17T04:36:20.919Z,1.42
2022-09-17T04:38:53.343Z,1.60
2022-09-17T04:41:23.408Z,1.70
2022-09-17T04:43:53.756Z,1.85
2022-09-17T04:46:24.160Z,1.60
2022-09-17T04:48:54.542Z,1.58
2022-09-17T04:51:24.812Z,1.50
2022-09-17T04:53:57.107Z,1.63
2022-09-17T04:56:27.569Z,1.65
2022-09-17T04:58:57.389Z,1.55
2022-09-17T05:01:28.527Z,1.30
2022-09-17T05:03:59.174Z,1.48
2022-09-17T05:06:29.574Z,1.60
2022-09-17T05:09:02.610Z,1.52
2022-09-17T05:11:33.442Z,1.33
2022-09-17T05:14:03.629Z,1.50
2022-09-17T05:16:34.176Z,1.45
2022-09-17T05:19:04.791Z,1.48
2022-09-17T05:21:35.066Z,1.30
2022-09-17T05:24:08.593Z,1.60
2022-09-17T05:26:38.995Z,1.40
2022-09-17T05:29:10.182Z,1.30
2022-09-17T05:31:40.661Z,1.38
2022-09-17T05:34:11.365Z,1.40
2022-09-17T05:36:41.809Z,1.27
2022-09-17T05:39:14.346Z,1.27
2022-09-17T05:41:44.752Z,1.33
2022-09-17T05:44:18.073Z,1.50
2022-09-17T05:46:48.871Z,1.33
2022-09-17T05:49:19.386Z,1.40
2022-09-17T05:51:50.264Z,1.40
2022-09-17T05:54:22.346Z,1.33
2022-09-17T05:56:57.384Z,1.40
2022-09-17T05:59:28.475Z,1.45
2022-09-17T06:01:59.348Z,1.50
2022-09-17T06:04:34.056Z,1.20
2022-09-17T06:07:08.949Z,1.38
2022-09-17T06:09:41.913Z,1.13
2022-09-17T06:12:12.140Z,1.20
2022-09-17T06:14:42.271Z,1.35
2022-09-17T06:17:12.699Z,1.30
2022-09-17T06:19:43.164Z,1.30
2022-09-17T06:22:13.290Z,1.52
2022-09-17T06:24:45.736Z,1.27
2022-09-17T06:27:15.832Z,1.30
2022-09-17T06:29:46.390Z,1.30
2022-09-17T06:32:17.379Z,1.23
2022-09-17T06:34:48.339Z,1.30
2022-09-17T06:37:18.545Z,1.30
2022-09-17T06:39:51.047Z,1.20
2022-09-17T06:42:21.505Z,1.38
2022-09-17T06:44:51.931Z,1.27
2022-09-17T06:47:21.996Z,1.20
2022-09-17T06:49:52.606Z,1.20
2022-09-17T06:52:22.940Z,1.20
2022-09-17T06:54:55.486Z,1.30
2022-09-17T06:57:26.032Z,1.15
2022-09-17T06:59:56.038Z,1.40
2022-09-17T07:02:26.768Z,1.27
2022-09-17T07:04:56.930Z,1.40
2022-09-17T07:07:27.440Z,1.25
2022-09-17T07:09:59.936Z,1.10
2022-09-17T07:12:30.265Z,1.30
2022-09-17T07:15:00.724Z,1.30
2022-09-17T07:17:32.961Z,1.30
2022-09-17T07:20:03.341Z,0.90
2022-09-17T07:22:33.684Z,1.15
2022-09-17T07:25:06.491Z,1.20
2022-09-17T07:27:36.578Z,1.02
2022-09-17T07:30:08.366Z,1.33
2022-09-17T07:32:38.501Z,1.40
2022-09-17T07:35:09.445Z,1.30
2022-09-17T07:37:40.063Z,1.15
2022-09-17T07:40:14.031Z,1.30
2022-09-17T07:42:44.442Z,1.08
2022-09-17T07:45:14.915Z,1.25
2022-09-17T07:47:45.326Z,1.33
2022-09-17T07:50:15.816Z,1.35
2022-09-17T07:52:50.027Z,1.30
2022-09-17T07:55:24.228Z,1.10
2022-09-17T07:57:58.646Z,1.13
2022-09-17T08:00:29.302Z,1.05
2022-09-17T08:03:01.700Z,1.20
2022-09-17T08:05:32.230Z,1.33
2022-09-17T08:08:03.162Z,1.30
2022-09-17T08:10:36.662Z,1.30
2022-09-17T08:13:07.495Z,1.15
2022-09-17T08:15:38.033Z,1.20
2022-09-17T08:18:08.236Z,1.20
2022-09-17T08:20:38.108Z,1.15
2022-09-17T08:23:08.528Z,1.27
2022-09-17T08:25:40.656Z,1.20
2022-09-17T08:28:10.659Z,1.30
2022-09-17T08:30:41.056Z,1.23
2022-09-17T08:33:10.934Z,1.20
2022-09-17T08:35:41.381Z,1.20
2022-09-17T08:38:11.650Z,1.20
2022-09-17T08:41:04.343Z,1.13
2022-09-17T08:43:42.905Z,1.30
2022-09-17T08:46:14.037Z,1.05
2022-09-17T08:48:52.001Z,1.30
2022-09-17T08:51:37.234Z,0.93
2022-09-17T08:54:21.018Z,1.00
2022-09-17T08:57:09.405Z,1.05
2022-09-17T08:59:52.365Z,1.20
2022-09-17T09:02:42.492Z,0.90
2022-09-17T09:05:19.900Z,1.20
2022-09-17T09:07:57.731Z,1.00
2022-09-17T09:10:34.124Z,1.00
2022-09-17T09:13:08.116Z,1.10
2022-09-17T09:15:46.543Z,1.05
2022-09-17T09:18:24.536Z,1.13
2022-09-17T09:21:01.486Z,1.00
2022-09-17T09:23:50.023Z,1.27
2022-09-17T09:26:23.268Z,1.23
2022-09-17T09:29:29.266Z,1.30
2022-09-17T09:32:20.991Z,1.08
2022-09-17T09:34:52.751Z,0.90
2022-09-17T09:37:30.844Z,1.45
2022-09-17T09:40:20.578Z,1.20
2022-09-17T09:42:51.358Z,1.15
2022-09-17T09:45:39.783Z,1.10
2022-09-17T09:48:25.333Z,1.17
2022-09-17T09:51:17.762Z,1.00
2022-09-17T09:54:10.967Z,1.10
2022-09-17T09:56:59.575Z,1.00
2022-09-17T09:59:30.365Z,1.10
2022-09-17T10:02:02.437Z,1.00
2022-09-17T10:04:33.598Z,1.00
2022-09-17T10:07:08.015Z,1.10
2022-09-17T10:09:41.270Z,1.02
2022-09-17T10:12:21.992Z,0.95
2022-09-17T10:15:06.146Z,1.10
2022-09-17T10:17:38.061Z,1.23
2022-09-17T10:20:25.964Z,1.05
2022-09-17T10:22:56.650Z,0.98
2022-09-17T10:25:33.354Z,1.02
2022-09-17T10:28:08.965Z,1.30
2022-09-17T10:30:39.325Z,1.13
2022-09-17T10:33:28.866Z,1.10
2022-09-17T10:36:07.122Z,1.00
2022-09-17T10:38:40.997Z,0.75
2022-09-17T10:41:29.111Z,1.00
2022-09-17T10:43:59.530Z,0.90
2022-09-17T10:46:34.364Z,0.88
2022-09-17T10:49:22.082Z,1.00
2022-09-17T10:51:52.914Z,1.10
2022-09-17T10:55:10.448Z,1.00
2022-09-17T10:58:11.477Z,0.77
2022-09-17T11:01:05.106Z,1.02
2022-09-17T11:04:17.157Z,0.90
2022-09-17T11:07:36.621Z,1.02
2022-09-17T11:10:20.174Z,0.90
2022-09-17T11:13:16.974Z,1.02
2022-09-17T11:16:09.889Z,0.90
2022-09-17T11:18:45.733Z,0.88
2022-09-17T11:21:52.459Z,1.00
2022-09-17T11:25:00.466Z,1.00
2022-09-17T11:27:59.437Z,0.80
2022-09-17T11:30:43.492Z,0.80
2022-09-17T11:33:32.668Z,0.82
2022-09-17T11:36:13.234Z,1.00
2022-09-17T11:38:49.103Z,1.10
2022-09-17T11:41:26.697Z,1.00
2022-09-17T11:44:11.057Z,0.75
2022-09-17T11:46:47.895Z,0.93
2022-09-17T11:49:33.300Z,1.00
2022-09-17T11:52:13.656Z,0.85
2022-09-17T11:54:53.864Z,0.90
2022-09-17T11:57:33.823Z,0.93
2022-09-17T12:00:15.108Z,1.10
2022-09-17T12:02:56.118Z,0.90
2022-09-17T12:05:33.499Z,0.80
2022-09-17T12:08:14.915Z,0.90
2022-09-17T12:10:55.529Z,1.00
2022-09-17T12:13:47.194Z,0.85
2022-09-17T12:16:25.404Z,0.70
2022-09-17T12:19:04.833Z,0.82
2022-09-17T12:21:42.833Z,0.90
2022-09-17T12:24:24.207Z,0.93
2022-09-17T12:27:18.217Z,0.88
2022-09-17T12:30:13.204Z,0.73
2022-09-17T12:33:15.983Z,0.68
2022-09-17T12:36:14.250Z,0.88
2022-09-17T12:39:06.898Z,0.80
2022-09-17T12:41:54.256Z,0.70
2022-09-17T12:45:02.165Z,0.80
2022-09-17T12:48:25.909Z,0.70
2022-09-17T12:51:12.728Z,0.63
2022-09-17T12:54:09.891Z,0.60
2022-09-17T12:57:00.235Z,0.52
2022-09-17T12:59:36.900Z,0.77
2022-09-17T13:02:20.379Z,0.88
2022-09-17T13:05:38.877Z,0.90
2022-09-17T13:09:02.263Z,0.60
2022-09-17T13:12:00.571Z,0.80
2022-09-17T13:14:49.730Z,0.65
2022-09-17T13:17:30.283Z,0.80
2022-09-17T13:20:14.216Z,0.60
2022-09-17T13:22:50.340Z,0.77
2022-09-17T13:25:23.232Z,0.68
2022-09-17T13:28:08.652Z,0.70
2022-09-17T13:30:58.838Z,0.82
2022-09-17T13:33:58.695Z,0.70
2022-09-17T13:36:51.561Z,0.80
2022-09-17T13:39:47.143Z,0.70
2022-09-17T13:42:29.355Z,0.80
2022-09-17T13:45:13.217Z,0.77
2022-09-17T13:47:55.504Z,0.88
2022-09-17T13:50:33.271Z,0.70
2022-09-17T13:53:21.845Z,0.80
2022-09-17T13:55:55.440Z,0.90
2022-09-17T13:58:30.163Z,0.93
2022-09-17T14:01:02.951Z,0.90
2022-09-17T14:03:57.520Z,0.80
2022-09-17T14:06:54.104Z,0.70
2022-09-17T14:09:54.517Z,0.70
2022-09-17T14:13:19.942Z,0.80
2022-09-17T14:16:04.844Z,0.70
2022-09-17T14:18:47.708Z,0.80
2022-09-17T14:21:28.968Z,0.70
2022-09-17T14:24:03.450Z,0.95
2022-09-17T14:27:17.952Z,1.00
2022-09-17T14:30:21.394Z,0.70
2022-09-17T14:33:06.615Z,0.70
2022-09-17T14:35:44.461Z,0.73
2022-09-17T14:38:22.991Z,0.80
2022-09-17T14:41:02.833Z,0.60
2022-09-17T14:43:47.075Z,0.80
2022-09-17T14:46:24.153Z,0.82
2022-09-17T14:48:55.061Z,0.93
2022-09-17T14:51:33.499Z,0.80
2022-09-17T14:54:23.149Z,0.90
2022-09-17T14:57:02.693Z,0.85
2022-09-17T14:59:53.539Z,0.90
2022-09-17T15:02:45.279Z,0.80
2022-09-17T15:05:33.796Z,0.80
2022-09-17T15:08:17.851Z,0.75
2022-09-17T15:10:55.501Z,0.77
2022-09-17T15:13:30.859Z,0.75
2022-09-17T15:16:13.201Z,0.70
2022-09-17T15:18:50.719Z,0.73
2022-09-17T15:21:32.446Z,0.57
2022-09-17T15:24:13.553Z,0.82
2022-09-17T15:26:47.792Z,0.68
2022-09-17T15:29:18.721Z,0.77
2022-09-17T15:31:51.203Z,0.80
2022-09-17T15:34:21.884Z,0.70
2022-09-17T15:37:07.962Z,0.70
2022-09-17T15:39:46.367Z,0.93
2022-09-17T15:42:27.483Z,0.60
2022-09-17T15:45:20.419Z,0.75
2022-09-17T15:47:57.956Z,0.80
2022-09-17T15:50:31.030Z,0.80
2022-09-17T15:53:25.789Z,0.75
2022-09-17T15:56:10.224Z,0.70
2022-09-17T15:58:56.091Z,0.80
2022-09-17T16:01:57.085Z,1.00
2022-09-17T16:04:33.709Z,0.73
2022-09-17T16:07:32.624Z,0.70
2022-09-17T16:10:03.047Z,0.60
2022-09-17T16:12:34.714Z,0.75
2022-09-17T16:15:06.195Z,0.82
2022-09-17T16:17:46.957Z,0.70
2022-09-17T16:20:24.061Z,0.90
2022-09-17T16:22:57.790Z,0.80
2022-09-17T16:25:31.234Z,0.65
2022-09-17T16:28:05.744Z,0.70
2022-09-17T16:30:36.373Z,0.80
2022-09-17T16:33:07.382Z,0.75
2022-09-17T16:35:40.743Z,0.82
2022-09-17T16:38:12.379Z,0.90
2022-09-17T16:40:48.013Z,0.60
2022-09-17T16:43:18.252Z,0.60
2022-09-17T16:46:02.155Z,0.93
2022-09-17T16:48:32.763Z,1.00
2022-09-17T16:51:10.116Z,0.70
2022-09-17T16:53:41.003Z,0.75
2022-09-17T16:56:12.030Z,0.80
2022-09-17T16:58:42.355Z,0.98
2022-09-17T17:01:14.600Z,0.75
2022-09-17T17:03:46.247Z,0.65
2022-09-17T17:06:23.219Z,0.73
2022-09-17T17:08:53.916Z,0.90
2022-09-17T17:11:24.310Z,0.98
2022-09-17T17:13:56.358Z,0.90
2022-09-17T17:16:26.505Z,1.25
2022-09-17T17:18:56.752Z,0.90
2022-09-17T17:21:29.085Z,0.90
2022-09-17T17:23:59.610Z,0.95
2022-09-17T17:26:29.326Z,0.80
2022-09-17T17:29:00.260Z,0.80
2022-09-17T17:31:30.232Z,0.70
2022-09-17T17:34:02.076Z,0.80
2022-09-17T17:36:34.708Z,0.80
2022-09-17T17:39:05.314Z,0.90
2022-09-17T17:41:36.046Z,1.20
2022-09-17T17:44:06.591Z,0.98
2022-09-17T17:46:37.056Z,1.00
2022-09-17T17:49:07.717Z,1.00
2022-09-17T17:51:40.302Z,0.65
2022-09-17T17:54:11.092Z,1.05
2022-09-17T17:56:41.612Z,0.82
2022-09-17T17:59:12.177Z,1.00
2022-09-17T18:01:42.968Z,0.90
2022-09-17T18:04:13.636Z,0.90
2022-09-17T18:06:45.478Z,0.77
2022-09-17T18:09:16.180Z,0.80
2022-09-17T18:11:46.418Z,0.88
2022-09-17T18:14:17.267Z,0.95
2022-09-17T18:16:47.884Z,0.70
2022-09-17T18:19:18.485Z,0.95
2022-09-17T18:21:50.990Z,1.35
2022-09-17T18:24:22.229Z,0.90
2022-09-17T18:26:53.133Z,1.00
2022-09-17T18:29:24.015Z,1.08
2022-09-17T18:31:55.144Z,0.90
2022-09-17T18:34:26.056Z,1.00
2022-09-17T18:36:58.625Z,1.63
2022-09-17T18:42:19.913Z,2.08
2022-09-17T18:44:49.943Z,1.70
2022-09-17T18:47:24.066Z,1.50
2022-09-17T18:49:54.402Z,1.60
2022-09-17T18:52:26.007Z,1.70
2022-09-17T18:54:56.423Z,1.73
2022-09-17T18:57:26.200Z,1.55
2022-09-17T18:59:58.823Z,1.48
2022-09-17T19:02:29.162Z,1.35
2022-09-17T19:04:59.241Z,1.20
2022-09-17T19:07:32.047Z,1.20
2022-09-17T19:10:03.375Z,1.20
2022-09-17T19:12:34.415Z,1.13
2022-09-17T19:15:04.711Z,1.00
2022-09-17T19:17:35.364Z,1.20
2022-09-17T19:20:06.807Z,1.25
2022-09-17T19:22:38.909Z,1.17
2022-09-17T19:25:10.840Z,1.25
2022-09-17T19:27:41.489Z,1.30
2022-09-17T19:30:14.494Z,1.10
2022-09-17T19:32:50.038Z,1.20
2022-09-17T19:35:21.306Z,1.45
2022-09-17T19:37:54.553Z,1.20
2022-09-17T19:40:25.703Z,1.40
2022-09-17T19:42:56.854Z,1.20
2022-09-17T19:45:27.492Z,1.33
2022-09-17T19:48:02.194Z,1.40
2022-09-17T19:50:36.004Z,1.10
2022-09-17T19:53:07.927Z,1.15
2022-09-17T19:55:41.418Z,1.10
2022-09-17T19:58:11.799Z,0.90
2022-09-17T20:00:42.313Z,0.80
2022-09-17T20:03:12.802Z,0.85
2022-09-17T20:05:43.438Z,0.90
2022-09-17T20:08:15.925Z,1.00
2022-09-17T20:10:46.888Z,0.93
2022-09-17T20:13:20.041Z,0.90
2022-09-17T20:15:50.439Z,1.00
2022-09-17T20:18:23.528Z,0.98
2022-09-17T20:20:54.747Z,0.80
2022-09-17T20:23:31.792Z,1.17
2022-09-17T20:26:11.795Z,1.00
2022-09-17T20:28:42.727Z,0.85
2022-09-17T20:31:17.191Z,1.02
2022-09-17T20:33:49.247Z,0.90
2022-09-17T20:36:22.284Z,1.00
2022-09-17T20:39:15.437Z,1.00
2022-09-17T20:41:46.825Z,0.80
2022-09-17T20:44:18.303Z,0.82
2022-09-17T20:46:49.066Z,0.90
2022-09-17T20:49:19.689Z,1.00
2022-09-17T20:51:50.202Z,1.05
2022-09-17T20:54:22.069Z,0.85
2022-09-17T20:56:52.720Z,1.00
2022-09-17T20:59:25.553Z,0.90
2022-09-17T21:01:56.560Z,1.02
2022-09-17T21:04:27.667Z,1.00
2022-09-17T21:06:57.668Z,0.85
2022-09-17T21:09:29.833Z,0.95
2022-09-17T21:12:00.471Z,1.13
2022-09-17T21:14:30.975Z,0.80
2022-09-17T21:17:01.362Z,1.00
2022-09-17T21:19:31.440Z,1.10
2022-09-17T21:22:01.967Z,0.93
2022-09-17T21:24:33.744Z,0.95
2022-09-17T21:27:03.493Z,1.00
2022-09-17T21:29:34.417Z,1.17
2022-09-17T21:32:05.070Z,0.82
2022-09-17T21:34:35.436Z,1.00
2022-09-17T21:37:06.038Z,1.10
2022-09-17T21:39:38.102Z,0.90
2022-09-17T21:42:08.320Z,1.10
2022-09-17T21:44:39.275Z,1.00
2022-09-17T21:47:12.440Z,1.10
2022-09-17T21:49:44.425Z,1.05
2022-09-17T21:52:14.628Z,1.13
2022-09-17T21:54:47.089Z,1.10
2022-09-17T21:57:17.650Z,0.98
2022-09-17T21:59:48.078Z,1.15
2022-09-17T22:02:18.532Z,0.75
2022-09-17T22:04:48.517Z,0.95
2022-09-17T22:07:18.574Z,1.00
2022-09-17T22:09:51.028Z,0.95
2022-09-17T22:12:21.592Z,1.08
2022-09-17T22:14:52.022Z,0.75
2022-09-17T22:17:23.572Z,0.73
2022-09-17T22:19:53.974Z,1.10
2022-09-17T22:22:24.520Z,1.10
2022-09-17T22:24:56.686Z,1.10
2022-09-17T22:27:27.162Z,0.90
2022-09-17T22:29:57.634Z,0.90
2022-09-17T22:32:29.065Z,1.10
2022-09-17T22:34:59.543Z,0.98
2022-09-17T22:37:38.373Z,1.15
2022-09-17T22:40:13.045Z,1.17
2022-09-17T22:42:43.119Z,1.13
2022-09-17T22:45:13.678Z,1.17
2022-09-17T22:47:44.400Z,1.15
2022-09-17T22:50:14.787Z,1.00
2022-09-17T22:52:45.678Z,1.15
2022-09-17T22:55:17.687Z,1.40
2022-09-17T22:57:48.061Z,1.15
2022-09-17T23:00:19.622Z,1.35
2022-09-17T23:02:49.566Z,1.13
2022-09-17T23:05:19.792Z,1.13
2022-09-17T23:07:50.418Z,1.10
2022-09-17T23:10:22.568Z,1.23
2022-09-17T23:12:52.180Z,1.15
2022-09-17T23:15:26.694Z,1.30
2022-09-17T23:17:57.305Z,1.10
2022-09-17T23:20:27.869Z,1.13
2022-09-17T23:22:58.490Z,1.10
2022-09-17T23:25:30.843Z,1.30
2022-09-17T23:28:01.477Z,1.30
2022-09-17T23:30:32.160Z,1.15
2022-09-17T23:33:01.947Z,1.33
2022-09-17T23:35:32.082Z,1.20
2022-09-17T23:38:02.639Z,1.13
2022-09-17T23:40:35.266Z,1.20
2022-09-17T23:43:05.672Z,1.30
2022-09-17T23:45:35.943Z,1.23
2022-09-17T23:48:06.465Z,1.08
2022-09-17T23:50:36.899Z,1.08
2022-09-17T23:53:07.138Z,1.20
2022-09-17T23:55:39.874Z,1.20
2022-09-17T23:58:10.187Z,1.35
